createdAt,value
2019-05-03T00:02:18.508Z,9.05
2019-05-03T00:04:48.811Z,9.07
2019-05-03T00:07:17.459Z,9.08
2019-05-03T00:09:46.084Z,8.99
2019-05-03T00:12:15.206Z,8.97
2019-05-03T00:14:45.593Z,9.00
2019-05-03T00:17:14.437Z,8.96
2019-05-03T00:19:43.068Z,8.93
2019-05-03T00:22:12.377Z,8.96
2019-05-03T00:24:42.687Z,8.88
2019-05-03T00:27:12.562Z,8.94
2019-05-03T00:29:41.794Z,8.93
2019-05-03T00:32:12.286Z,8.94
2019-05-03T00:34:59.166Z,8.94
2019-05-03T00:37:32.808Z,8.79
2019-05-03T00:40:08.574Z,8.85
2019-05-03T00:42:37.293Z,8.81
2019-05-03T00:45:07.847Z,8.74
2019-05-03T00:47:36.700Z,8.82
2019-05-03T00:50:07.118Z,8.81
2019-05-03T00:52:35.944Z,8.76
2019-05-03T00:55:16.047Z,8.73
2019-05-03T00:57:36.853Z,8.72
2019-05-03T01:00:07.683Z,8.71
2019-05-03T01:02:36.196Z,8.78
2019-05-03T01:05:06.765Z,8.67
2019-05-03T01:07:35.713Z,8.70
2019-05-03T01:10:07.349Z,8.71
2019-05-03T01:12:35.867Z,8.74
2019-05-03T01:15:08.660Z,8.66
2019-05-03T01:17:37.592Z,8.64
2019-05-03T01:20:09.346Z,8.71
2019-05-03T01:22:37.893Z,8.57
2019-05-03T01:25:07.318Z,8.63
2019-05-03T01:27:35.944Z,8.66
2019-05-03T01:30:08.390Z,8.60
2019-05-03T01:32:36.967Z,8.62
2019-05-03T01:35:07.044Z,8.75
2019-05-03T01:37:35.620Z,8.69
2019-05-03T01:40:06.263Z,8.66
2019-05-03T01:42:34.856Z,8.72
2019-05-03T01:45:04.154Z,8.52
2019-05-03T01:47:34.404Z,8.32
2019-05-03T01:50:12.176Z,8.52
2019-05-03T01:52:42.426Z,8.43
2019-05-03T01:55:15.786Z,8.31
2019-05-03T01:57:41.987Z,8.24
2019-05-03T02:00:14.498Z,8.27
2019-05-03T02:02:47.180Z,8.27
2019-05-03T02:05:20.291Z,8.32
2019-05-03T02:07:48.849Z,8.27
2019-05-03T02:10:17.421Z,8.27
2019-05-03T02:12:46.051Z,8.19
2019-05-03T02:15:14.775Z,8.21
2019-05-03T02:17:43.385Z,8.20
2019-05-03T02:20:12.743Z,8.18
2019-05-03T02:22:42.752Z,8.26
2019-05-03T02:25:12.434Z,8.24
2019-05-03T02:27:42.292Z,8.16
2019-05-03T02:30:14.078Z,8.05
2019-05-03T02:32:43.912Z,8.08
2019-05-03T02:35:13.973Z,8.08
2019-05-03T02:37:44.784Z,8.07
2019-05-03T02:40:13.753Z,8.02
2019-05-03T02:42:46.345Z,7.88
2019-05-03T02:45:22.273Z,7.94
2019-05-03T02:47:55.170Z,7.92
2019-05-03T02:50:25.798Z,7.87
2019-05-03T02:52:55.169Z,7.78
2019-05-03T02:55:26.094Z,7.79
2019-05-03T02:57:56.046Z,7.78
2019-05-03T03:01:02.230Z,7.72
2019-05-03T03:03:36.265Z,7.80
2019-05-03T03:06:06.884Z,7.76
2019-05-03T03:08:37.088Z,7.78
2019-05-03T03:11:08.159Z,7.56
2019-05-03T03:13:39.327Z,7.58
2019-05-03T03:16:09.997Z,7.60
2019-05-03T03:18:40.352Z,7.67
2019-05-03T03:21:20.210Z,7.69
2019-05-03T03:23:56.140Z,7.62
2019-05-03T03:26:37.668Z,7.65
2019-05-03T03:29:05.897Z,7.61
2019-05-03T03:31:58.081Z,7.53
2019-05-03T03:34:29.977Z,7.42
2019-05-03T03:37:05.232Z,7.58
2019-05-03T03:39:36.093Z,7.64
2019-05-03T03:42:05.290Z,7.62
2019-05-03T03:44:36.350Z,7.62
2019-05-03T03:47:06.034Z,7.54
2019-05-03T03:49:36.427Z,7.61
2019-05-03T03:52:06.161Z,7.66
2019-05-03T03:54:36.445Z,7.42
2019-05-03T03:57:08.042Z,7.47
2019-05-03T03:59:36.652Z,7.43
2019-05-03T04:02:05.944Z,7.42
2019-05-03T04:04:35.894Z,7.30
2019-05-03T04:07:06.635Z,7.37
2019-05-03T04:09:36.372Z,7.34
2019-05-03T04:12:06.193Z,7.30
2019-05-03T04:14:39.307Z,7.29
2019-05-03T04:17:30.191Z,7.28
2019-05-03T04:20:00.465Z,7.20
2019-05-03T04:22:29.338Z,7.16
2019-05-03T04:24:58.158Z,7.02
2019-05-03T04:27:27.688Z,7.09
2019-05-03T04:29:56.726Z,7.12
2019-05-03T04:32:28.802Z,6.98
2019-05-03T04:34:56.103Z,7.04
2019-05-03T04:37:26.641Z,6.99
2019-05-03T04:39:56.035Z,6.91
2019-05-03T04:42:25.503Z,6.88
2019-05-03T04:44:56.187Z,6.88
2019-05-03T04:47:26.277Z,6.70
2019-05-03T04:49:55.589Z,6.70
2019-05-03T04:52:25.896Z,6.74
2019-05-03T04:54:56.849Z,6.69
2019-05-03T04:57:39.249Z,6.69
2019-05-03T04:59:56.437Z,6.77
2019-05-03T05:02:26.248Z,6.63
2019-05-03T05:04:55.682Z,6.65
2019-05-03T05:07:26.199Z,6.59
2019-05-03T05:09:56.153Z,6.59
2019-05-03T05:12:25.448Z,6.59
2019-05-03T05:14:56.422Z,6.46
2019-05-03T05:17:29.326Z,6.55
2019-05-03T05:20:05.504Z,6.60
2019-05-03T05:22:35.174Z,6.61
2019-05-03T05:25:06.293Z,6.68
2019-05-03T05:27:48.718Z,6.65
2019-05-03T05:30:11.434Z,6.74
2019-05-03T05:32:40.142Z,6.82
2019-05-03T05:35:08.757Z,6.91
2019-05-03T05:37:37.770Z,6.94
2019-05-03T05:40:07.100Z,7.10
2019-05-03T05:42:35.713Z,7.10
2019-05-03T05:45:05.903Z,7.11
2019-05-03T05:47:38.557Z,7.21
2019-05-03T05:50:09.678Z,7.17
2019-05-03T05:52:38.656Z,7.18
2019-05-03T05:55:15.467Z,7.02
2019-05-03T06:00:40.486Z,6.92
2019-05-03T06:03:09.022Z,6.85
2019-05-03T06:05:37.859Z,7.08
2019-05-03T06:08:24.987Z,7.08
2019-05-03T06:11:14.773Z,7.26
2019-05-03T06:13:50.552Z,7.40
2019-05-03T06:16:24.530Z,7.52
2019-05-03T06:18:54.851Z,7.38
2019-05-03T06:21:25.189Z,7.41
2019-05-03T06:24:01.434Z,7.58
2019-05-03T06:26:36.763Z,7.59
2019-05-03T06:29:06.561Z,7.52
2019-05-03T06:31:36.865Z,7.74
2019-05-03T06:34:05.392Z,7.96
2019-05-03T06:36:35.380Z,8.05
2019-05-03T06:39:08.235Z,7.92
2019-05-03T06:41:35.801Z,8.08
2019-05-03T06:44:04.549Z,8.27
2019-05-03T06:46:46.751Z,8.45
2019-05-03T06:49:15.786Z,8.45
2019-05-03T06:51:47.975Z,7.96
2019-05-03T06:54:15.768Z,8.05
2019-05-03T06:56:45.283Z,8.50
2019-05-03T06:59:15.610Z,8.33
2019-05-03T07:02:02.344Z,8.46
2019-05-03T07:04:34.593Z,8.37
2019-05-03T07:07:19.851Z,8.36
2019-05-03T07:09:54.585Z,8.58
2019-05-03T07:12:25.053Z,8.42
2019-05-03T07:14:54.848Z,8.31
2019-05-03T07:17:24.821Z,8.38
2019-05-03T07:19:54.639Z,8.52
2019-05-03T07:22:24.425Z,8.82
2019-05-03T07:24:54.680Z,8.91
2019-05-03T07:27:24.820Z,8.59
2019-05-03T07:29:55.497Z,8.79
2019-05-03T07:32:24.655Z,8.89
2019-05-03T07:34:55.481Z,8.56
2019-05-03T07:37:24.552Z,8.70
2019-05-03T07:39:55.481Z,9.01
2019-05-03T07:42:25.452Z,9.21
2019-05-03T07:44:55.909Z,9.09
2019-05-03T07:47:24.771Z,9.09
2019-05-03T07:49:54.676Z,9.03
2019-05-03T07:52:23.337Z,9.03
2019-05-03T07:54:51.958Z,9.08
2019-05-03T07:57:25.438Z,9.25
2019-05-03T07:59:55.676Z,9.43
2019-05-03T08:02:27.217Z,9.45
2019-05-03T08:04:55.135Z,9.75
2019-05-03T08:07:25.787Z,10.04
2019-05-03T08:09:55.540Z,9.81
2019-05-03T08:12:24.841Z,9.74
2019-05-03T08:14:55.184Z,9.88
2019-05-03T08:17:25.584Z,9.80
2019-05-03T08:19:55.204Z,10.12
2019-05-03T08:22:25.559Z,10.07
2019-05-03T08:24:55.501Z,9.52
2019-05-03T08:27:25.231Z,9.82
2019-05-03T08:29:55.761Z,9.91
2019-05-03T08:32:31.879Z,10.52
2019-05-03T08:35:18.515Z,10.78
2019-05-03T08:37:48.784Z,10.79
2019-05-03T08:40:18.212Z,10.86
2019-05-03T08:42:47.130Z,10.52
2019-05-03T08:45:16.067Z,11.14
2019-05-03T08:47:45.164Z,10.96
2019-05-03T08:50:20.713Z,10.64
2019-05-03T08:52:45.337Z,10.25
2019-05-03T08:55:15.887Z,10.49
2019-05-03T08:57:45.057Z,10.70
2019-05-03T09:00:16.012Z,11.13
2019-05-03T09:02:44.821Z,11.13
2019-05-03T09:05:15.728Z,11.17
2019-05-03T09:07:44.768Z,10.99
2019-05-03T09:10:22.045Z,11.46
2019-05-03T09:13:08.102Z,11.41
2019-05-03T09:15:38.688Z,11.77
2019-05-03T09:18:07.291Z,11.96
2019-05-03T09:20:35.844Z,12.06
2019-05-03T09:23:05.487Z,12.14
2019-05-03T09:25:35.541Z,12.10
2019-05-03T09:28:05.025Z,12.33
2019-05-03T09:30:35.455Z,12.75
2019-05-03T09:33:05.996Z,12.60
2019-05-03T09:35:36.054Z,11.93
2019-05-03T09:38:05.757Z,11.37
2019-05-03T09:40:35.280Z,11.50
2019-05-03T09:43:04.532Z,11.54
2019-05-03T09:45:35.352Z,11.40
2019-05-03T09:48:05.781Z,11.36
2019-05-03T09:50:35.884Z,11.63
2019-05-03T09:53:05.426Z,11.96
2019-05-03T09:55:41.535Z,11.96
2019-05-03T09:58:10.142Z,12.04
2019-05-03T10:00:38.752Z,11.51
2019-05-03T10:03:07.372Z,11.29
2019-05-03T10:05:36.000Z,10.91
2019-05-03T10:08:05.258Z,10.74
2019-05-03T10:10:35.895Z,10.78
2019-05-03T10:13:13.083Z,10.49
2019-05-03T10:15:41.214Z,10.40
2019-05-03T10:18:11.976Z,10.31
2019-05-03T10:20:40.982Z,10.25
2019-05-03T10:23:27.733Z,10.86
2019-05-03T10:26:00.422Z,11.01
2019-05-03T10:28:29.048Z,11.44
2019-05-03T10:30:59.311Z,11.59
2019-05-03T10:33:35.358Z,10.99
2019-05-03T10:36:05.530Z,10.94
2019-05-03T10:38:33.858Z,10.62
2019-05-03T10:41:02.552Z,10.78
2019-05-03T10:43:31.267Z,11.19
2019-05-03T10:46:01.420Z,11.81
2019-05-03T10:48:35.343Z,12.05
2019-05-03T10:51:04.724Z,11.70
2019-05-03T10:53:35.473Z,11.97
2019-05-03T10:56:22.650Z,12.04
2019-05-03T10:58:56.122Z,12.05
2019-05-03T11:01:31.909Z,11.97
2019-05-03T11:04:02.466Z,12.50
2019-05-03T11:06:31.072Z,12.40
2019-05-03T11:09:01.320Z,12.34
2019-05-03T11:11:31.471Z,12.07
2019-05-03T11:14:05.554Z,11.99
2019-05-03T11:16:35.163Z,11.67
2019-05-03T11:19:05.398Z,11.49
2019-05-03T11:21:34.730Z,11.31
2019-05-03T11:24:03.554Z,11.08
2019-05-03T11:26:34.733Z,11.16
2019-05-03T11:29:04.982Z,11.17
2019-05-03T11:31:51.311Z,11.81
2019-05-03T11:34:22.774Z,12.33
2019-05-03T11:36:54.895Z,12.65
2019-05-03T11:39:25.097Z,12.60
2019-05-03T11:42:01.325Z,12.58
2019-05-03T11:44:38.739Z,12.18
2019-05-03T11:47:09.073Z,11.85
2019-05-03T11:49:37.930Z,11.90
2019-05-03T11:52:06.930Z,11.90
2019-05-03T11:54:36.048Z,11.80
2019-05-03T11:57:06.631Z,12.17
2019-05-03T11:59:36.275Z,12.43
2019-05-03T12:02:24.760Z,12.87
2019-05-03T12:04:55.232Z,13.20
2019-05-03T12:07:39.067Z,13.38
2019-05-03T12:10:13.563Z,13.13
2019-05-03T12:12:35.394Z,12.38
2019-05-03T12:15:05.541Z,12.33
2019-05-03T12:17:36.218Z,12.15
2019-05-03T12:20:07.834Z,11.92
2019-05-03T12:22:37.589Z,12.02
2019-05-03T12:25:10.320Z,12.35
2019-05-03T12:27:38.439Z,12.29
2019-05-03T12:30:07.796Z,12.50
2019-05-03T12:32:36.378Z,12.58
2019-05-03T12:35:06.674Z,13.08
2019-05-03T12:37:36.705Z,13.24
2019-05-03T12:40:06.206Z,12.88
2019-05-03T12:42:35.760Z,12.64
2019-05-03T12:45:05.081Z,12.14
2019-05-03T12:47:34.690Z,12.32
2019-05-03T12:50:05.450Z,12.34
2019-05-03T12:52:35.474Z,12.60
2019-05-03T12:55:06.110Z,13.32
2019-05-03T12:57:34.688Z,13.07
2019-05-03T13:00:09.165Z,13.03
2019-05-03T13:02:42.169Z,13.30
2019-05-03T13:05:11.204Z,13.54
2019-05-03T13:07:47.075Z,13.76
2019-05-03T13:10:21.698Z,13.55
2019-05-03T13:12:52.481Z,13.95
2019-05-03T13:15:18.541Z,14.04
2019-05-03T13:17:47.076Z,13.88
2019-05-03T13:20:16.403Z,13.84
2019-05-03T13:22:45.738Z,14.00
2019-05-03T13:25:15.716Z,13.75
2019-05-03T13:27:46.027Z,13.90
2019-05-03T13:30:15.915Z,14.15
2019-05-03T13:32:45.714Z,13.97
2019-05-03T13:35:15.138Z,13.78
2019-05-03T13:37:45.303Z,13.76
2019-05-03T13:40:14.095Z,13.26
2019-05-03T13:42:54.159Z,13.59
2019-05-03T13:45:13.464Z,12.88
2019-05-03T13:47:41.990Z,13.23
2019-05-03T13:50:10.685Z,13.14
2019-05-03T13:52:39.289Z,12.84
2019-05-03T13:55:07.911Z,13.04
2019-05-03T13:57:36.429Z,13.18
2019-05-03T14:00:08.926Z,13.25
2019-05-03T14:02:37.552Z,12.77
2019-05-03T14:05:08.215Z,12.39
2019-05-03T14:07:36.824Z,12.02
2019-05-03T14:10:08.425Z,11.78
2019-05-03T14:12:36.942Z,11.85
2019-05-03T14:15:09.008Z,11.90
2019-05-03T14:17:37.520Z,11.90
2019-05-03T14:20:19.941Z,12.12
2019-05-03T14:22:50.193Z,12.19
2019-05-03T14:25:18.802Z,12.43
2019-05-03T14:27:47.337Z,12.11
2019-05-03T14:30:16.777Z,12.51
2019-05-03T14:32:45.473Z,12.98
2019-05-03T14:35:16.224Z,12.78
2019-05-03T14:37:45.838Z,12.56
2019-05-03T14:40:15.592Z,12.39
2019-05-03T14:42:44.782Z,12.31
2019-05-03T14:45:15.088Z,12.50
2019-05-03T14:47:43.789Z,12.40
2019-05-03T14:50:14.808Z,12.74
2019-05-03T14:52:45.303Z,12.49
2019-05-03T14:55:15.384Z,12.20
2019-05-03T14:57:51.470Z,12.02
2019-05-03T15:00:21.821Z,12.04
2019-05-03T15:02:58.528Z,11.97
2019-05-03T15:05:27.370Z,11.78
2019-05-03T15:07:56.053Z,11.89
2019-05-03T15:10:24.563Z,11.89
2019-05-03T15:12:53.115Z,11.67
2019-05-03T15:15:21.885Z,11.64
2019-05-03T15:17:50.491Z,11.57
2019-05-03T15:20:19.247Z,11.57
2019-05-03T15:22:47.815Z,11.37
2019-05-03T15:25:16.733Z,11.28
2019-05-03T15:27:45.356Z,11.32
2019-05-03T15:30:15.612Z,11.40
2019-05-03T15:32:56.673Z,11.52
2019-05-03T15:35:15.891Z,11.42
2019-05-03T15:37:45.365Z,11.59
2019-05-03T15:40:15.602Z,11.65
2019-05-03T15:42:45.929Z,11.86
2019-05-03T15:45:34.489Z,12.25
2019-05-03T15:48:10.281Z,12.33
2019-05-03T15:50:39.193Z,12.40
2019-05-03T15:53:07.818Z,12.29
2019-05-03T15:55:36.763Z,11.96
2019-05-03T15:58:05.449Z,12.04
2019-05-03T16:00:34.075Z,11.72
2019-05-03T16:03:08.949Z,11.51
2019-05-03T16:05:32.953Z,11.47
2019-05-03T16:08:01.583Z,11.59
2019-05-03T16:10:30.207Z,11.90
2019-05-03T16:13:00.547Z,11.88
2019-05-03T16:15:29.170Z,11.68
2019-05-03T16:17:58.639Z,11.81
2019-05-03T16:20:30.036Z,11.41
2019-05-03T16:22:58.173Z,11.39
2019-05-03T16:25:27.084Z,11.16
2019-05-03T16:27:57.252Z,10.92
2019-05-03T16:30:42.229Z,10.86
2019-05-03T16:33:25.633Z,10.66
2019-05-03T16:35:41.192Z,10.53
2019-05-03T16:38:09.739Z,10.38
2019-05-03T16:40:38.274Z,10.26
2019-05-03T16:43:07.148Z,10.19
2019-05-03T16:45:35.748Z,10.08
2019-05-03T16:48:04.578Z,10.05
2019-05-03T16:50:34.560Z,9.86
2019-05-03T16:53:03.215Z,10.09
2019-05-03T16:55:32.141Z,10.41
2019-05-03T16:58:03.937Z,10.47
2019-05-03T17:00:32.654Z,10.72
2019-05-03T17:03:01.281Z,10.88
2019-05-03T17:05:31.740Z,10.79
2019-05-03T17:11:09.224Z,10.57
2019-05-03T17:13:37.831Z,10.51
2019-05-03T17:16:06.893Z,10.29
2019-05-03T17:18:36.278Z,10.16
2019-05-03T17:21:06.624Z,10.11
2019-05-03T17:23:35.654Z,10.05
2019-05-03T17:26:04.561Z,9.74
2019-05-03T17:28:35.196Z,9.76
2019-05-03T17:31:04.508Z,9.66
2019-05-03T17:33:34.845Z,9.78
2019-05-03T17:36:05.120Z,9.72
2019-05-03T17:38:35.171Z,9.91
2019-05-03T17:41:14.877Z,9.88
2019-05-03T17:43:51.111Z,9.73
2019-05-03T17:46:19.666Z,9.67
2019-05-03T17:48:48.266Z,9.63
2019-05-03T17:51:35.173Z,9.43
2019-05-03T17:54:17.357Z,9.29
2019-05-03T17:56:47.606Z,9.26
2019-05-03T17:59:17.569Z,9.10
2019-05-03T18:02:06.715Z,9.00
2019-05-03T18:04:36.112Z,9.02
2019-05-03T18:07:09.033Z,8.94
2019-05-03T18:09:42.046Z,8.96
2019-05-03T18:12:10.577Z,8.91
2019-05-03T18:14:39.163Z,8.90
2019-05-03T18:17:07.769Z,8.93
2019-05-03T18:19:36.382Z,8.93
2019-05-03T18:22:05.319Z,9.07
2019-05-03T18:24:35.195Z,9.12
2019-05-03T18:27:04.155Z,9.19
2019-05-03T18:29:34.563Z,9.08
2019-05-03T18:32:03.117Z,9.09
2019-05-03T18:34:31.729Z,8.94
2019-05-03T18:37:00.256Z,8.97
2019-05-03T18:39:30.589Z,9.00
2019-05-03T18:41:59.510Z,9.03
2019-05-03T18:44:29.770Z,9.06
2019-05-03T18:47:00.016Z,9.01
2019-05-03T18:49:28.632Z,8.96
2019-05-03T18:51:57.339Z,8.91
2019-05-03T18:54:25.946Z,8.80
2019-05-03T18:56:55.770Z,8.74
2019-05-03T18:59:24.398Z,8.84
2019-05-03T19:01:55.082Z,8.77
2019-05-03T19:04:34.069Z,8.80
2019-05-03T19:07:03.903Z,8.71
2019-05-03T19:09:30.107Z,8.68
2019-05-03T19:12:12.675Z,8.71
2019-05-03T19:14:41.671Z,8.64
2019-05-03T19:17:32.215Z,8.67
2019-05-03T19:20:10.969Z,8.65
2019-05-03T19:22:39.752Z,8.56
2019-05-03T19:25:08.609Z,8.54
2019-05-03T19:27:37.620Z,8.63
2019-05-03T19:30:07.595Z,8.61
2019-05-03T19:32:36.184Z,8.53
2019-05-03T19:35:09.833Z,8.48
2019-05-03T19:37:38.527Z,8.48
2019-05-03T19:40:08.366Z,8.59
2019-05-03T19:42:37.472Z,8.48
2019-05-03T19:45:06.901Z,8.52
2019-05-03T19:47:35.553Z,8.44
2019-05-03T19:50:06.257Z,8.48
2019-05-03T19:52:54.526Z,8.44
2019-05-03T19:55:22.884Z,8.47
2019-05-03T19:57:54.886Z,8.37
2019-05-03T20:00:25.683Z,8.41
2019-05-03T20:03:07.895Z,8.41
2019-05-03T20:05:55.215Z,8.39
2019-05-03T20:11:21.638Z,8.29
2019-05-03T20:13:50.257Z,8.31
2019-05-03T20:16:18.858Z,8.34
2019-05-03T20:18:47.486Z,8.30
2019-05-03T20:21:16.176Z,8.25
2019-05-03T20:23:47.041Z,8.32
2019-05-03T20:26:15.443Z,8.35
2019-05-03T20:28:44.928Z,8.36
2019-05-03T20:31:13.995Z,8.39
2019-05-03T20:33:42.513Z,8.31
2019-05-03T20:36:11.127Z,8.35
2019-05-03T20:38:39.751Z,8.13
2019-05-03T20:41:08.361Z,8.09
2019-05-03T20:43:41.276Z,8.07
2019-05-03T20:46:11.577Z,8.06
2019-05-03T20:48:42.008Z,7.99
2019-05-03T20:51:10.602Z,7.98
2019-05-03T20:53:39.213Z,7.99
2019-05-03T20:56:07.823Z,7.98
2019-05-03T20:58:36.432Z,8.04
2019-05-03T21:01:05.168Z,8.04
2019-05-03T21:03:33.765Z,8.01
2019-05-03T21:06:03.098Z,8.04
2019-05-03T21:08:34.498Z,8.08
2019-05-03T21:11:05.260Z,8.05
2019-05-03T21:13:41.921Z,8.00
2019-05-03T21:16:06.041Z,7.96
2019-05-03T21:21:29.609Z,7.98
2019-05-03T21:24:04.585Z,7.96
2019-05-03T21:26:34.563Z,7.93
2019-05-03T21:29:04.745Z,7.87
2019-05-03T21:31:35.230Z,7.83
2019-05-03T21:34:05.670Z,7.78
2019-05-03T21:36:34.856Z,7.77
2019-05-03T21:39:05.947Z,7.69
2019-05-03T21:41:35.012Z,7.65
2019-05-03T21:44:05.079Z,7.71
2019-05-03T21:46:37.986Z,7.71
2019-05-03T21:49:14.913Z,7.75
2019-05-03T21:51:44.969Z,7.82
2019-05-03T21:54:15.310Z,7.88
2019-05-03T21:56:44.704Z,7.97
2019-05-03T21:59:13.857Z,7.87
2019-05-03T22:01:45.648Z,7.89
2019-05-03T22:04:15.591Z,7.96
2019-05-03T22:06:44.512Z,8.06
2019-05-03T22:09:20.643Z,8.04
2019-05-03T22:11:52.117Z,8.08
2019-05-03T22:14:21.725Z,8.08
2019-05-03T22:16:51.973Z,8.12
2019-05-03T22:19:20.584Z,8.01
2019-05-03T22:21:50.828Z,8.02
2019-05-03T22:24:25.252Z,8.09
2019-05-03T22:27:01.408Z,8.09
2019-05-03T22:29:32.684Z,8.03
2019-05-03T22:32:01.296Z,7.97
2019-05-03T22:34:31.764Z,8.02
2019-05-03T22:37:00.476Z,8.04
2019-05-03T22:39:29.085Z,7.99
2019-05-03T22:41:59.694Z,8.01
2019-05-03T22:44:28.272Z,7.96
2019-05-03T22:46:56.874Z,8.02
2019-05-03T22:49:26.096Z,7.95
2019-05-03T22:51:54.729Z,8.00
2019-05-03T22:54:24.569Z,8.11
2019-05-03T22:56:55.212Z,8.07
2019-05-03T22:59:25.227Z,8.12
2019-05-03T23:01:54.648Z,8.11
2019-05-03T23:04:25.241Z,7.93
2019-05-03T23:06:55.510Z,7.93
2019-05-03T23:09:24.900Z,7.84
2019-05-03T23:11:55.277Z,7.87
2019-05-03T23:14:25.496Z,7.93
2019-05-03T23:16:54.591Z,7.93
2019-05-03T23:19:23.307Z,7.45
2019-05-03T23:22:02.156Z,7.37
2019-05-03T23:24:31.491Z,7.39
2019-05-03T23:27:00.616Z,7.39
2019-05-03T23:29:32.083Z,7.23
2019-05-03T23:32:01.493Z,7.19
2019-05-03T23:34:35.133Z,7.05
2019-05-03T23:37:05.407Z,6.97
2019-05-03T23:39:33.866Z,6.84
2019-05-03T23:42:04.821Z,6.83
2019-05-03T23:44:35.103Z,6.85
2019-05-03T23:47:05.446Z,6.77
2019-05-03T23:49:35.281Z,6.73
2019-05-03T23:52:08.284Z,6.60
2019-05-03T23:54:36.898Z,6.56
2019-05-03T23:57:05.511Z,6.52
2019-05-03T23:59:35.363Z,6.48
